sensor_id;sensor_type;location;lat;lon;timestamp;temperature;humidity
752;DHT22;360;48.764;9.164;2023-01-04T00:01:25;4.50;99.90
752;DHT22;360;48.764;9.164;2023-01-04T00:03:51;4.50;99.90
752;DHT22;360;48.764;9.164;2023-01-04T00:06:19;4.40;99.90
752;DHT22;360;48.764;9.164;2023-01-04T00:08:45;4.40;99.90
752;DHT22;360;48.764;9.164;2023-01-04T00:11:15;4.50;99.90
752;DHT22;360;48.764;9.164;2023-01-04T00:13:43;4.50;99.90
752;DHT22;360;48.764;9.164;2023-01-04T00:16:13;4.50;99.90
752;DHT22;360;48.764;9.164;2023-01-04T00:18:41;4.60;99.90
752;DHT22;360;48.764;9.164;2023-01-04T00:21:09;4.60;99.90
752;DHT22;360;48.764;9.164;2023-01-04T00:23:37;4.70;99.90
752;DHT22;360;48.764;9.164;2023-01-04T00:26:07;4.60;99.90
752;DHT22;360;48.764;9.164;2023-01-04T00:28:34;4.70;99.90
752;DHT22;360;48.764;9.164;2023-01-04T00:31:02;4.70;99.90
752;DHT22;360;48.764;9.164;2023-01-04T00:33:31;4.60;99.90
752;DHT22;360;48.764;9.164;2023-01-04T00:36:02;4.50;99.90
752;DHT22;360;48.764;9.164;2023-01-04T00:38:30;4.50;99.90
752;DHT22;360;48.764;9.164;2023-01-04T00:40:57;4.50;99.90
752;DHT22;360;48.764;9.164;2023-01-04T00:43:24;4.60;99.90
752;DHT22;360;48.764;9.164;2023-01-04T00:45:50;4.60;99.90
752;DHT22;360;48.764;9.164;2023-01-04T00:48:17;4.50;99.90
752;DHT22;360;48.764;9.164;2023-01-04T00:50:47;4.50;99.90
752;DHT22;360;48.764;9.164;2023-01-04T00:53:14;4.40;99.90
752;DHT22;360;48.764;9.164;2023-01-04T00:55:42;4.40;99.90
752;DHT22;360;48.764;9.164;2023-01-04T00:58:09;4.40;99.90
752;DHT22;360;48.764;9.164;2023-01-04T01:00:36;4.30;99.90
752;DHT22;360;48.764;9.164;2023-01-04T01:03:03;4.10;99.90
752;DHT22;360;48.764;9.164;2023-01-04T01:05:32;4.00;99.90
752;DHT22;360;48.764;9.164;2023-01-04T01:08:00;4.20;99.90
752;DHT22;360;48.764;9.164;2023-01-04T01:10:49;4.20;99.90
752;DHT22;360;48.764;9.164;2023-01-04T01:13:16;4.10;99.90
752;DHT22;360;48.764;9.164;2023-01-04T01:15:42;4.00;99.90
752;DHT22;360;48.764;9.164;2023-01-04T01:18:09;4.10;99.90
752;DHT22;360;48.764;9.164;2023-01-04T01:20:40;4.10;99.90
752;DHT22;360;48.764;9.164;2023-01-04T01:23:11;4.20;99.90
752;DHT22;360;48.764;9.164;2023-01-04T01:25:38;4.20;99.90
752;DHT22;360;48.764;9.164;2023-01-04T01:28:04;4.40;99.90
752;DHT22;360;48.764;9.164;2023-01-04T01:30:31;4.40;93.10
752;DHT22;360;48.764;9.164;2023-01-04T01:32:58;4.20;99.90
752;DHT22;360;48.764;9.164;2023-01-04T01:35:25;4.30;99.90
752;DHT22;360;48.764;9.164;2023-01-04T01:37:52;4.40;99.90
752;DHT22;360;48.764;9.164;2023-01-04T01:40:20;4.40;99.90
752;DHT22;360;48.764;9.164;2023-01-04T01:42:47;4.30;99.90
752;DHT22;360;48.764;9.164;2023-01-04T01:45:25;4.50;99.90
752;DHT22;360;48.764;9.164;2023-01-04T01:47:58;4.50;99.40
752;DHT22;360;48.764;9.164;2023-01-04T01:50:29;4.50;92.70
752;DHT22;360;48.764;9.164;2023-01-04T01:52:59;4.30;91.70
752;DHT22;360;48.764;9.164;2023-01-04T01:55:29;4.30;99.90
752;DHT22;360;48.764;9.164;2023-01-04T01:57:57;4.10;99.90
752;DHT22;360;48.764;9.164;2023-01-04T02:00:24;4.10;99.90
752;DHT22;360;48.764;9.164;2023-01-04T02:03:03;4.10;99.90
752;DHT22;360;48.764;9.164;2023-01-04T02:05:32;4.10;99.90
752;DHT22;360;48.764;9.164;2023-01-04T02:08:00;4.00;99.90
752;DHT22;360;48.764;9.164;2023-01-04T02:10:30;3.90;99.90
752;DHT22;360;48.764;9.164;2023-01-04T02:12:58;4.00;99.90
752;DHT22;360;48.764;9.164;2023-01-04T02:15:28;3.80;99.90
752;DHT22;360;48.764;9.164;2023-01-04T02:18:02;3.70;99.90
752;DHT22;360;48.764;9.164;2023-01-04T02:20:46;3.60;99.90
752;DHT22;360;48.764;9.164;2023-01-04T02:23:41;3.70;99.90
752;DHT22;360;48.764;9.164;2023-01-04T02:26:48;3.80;99.90
752;DHT22;360;48.764;9.164;2023-01-04T02:29:50;3.90;99.90
752;DHT22;360;48.764;9.164;2023-01-04T02:32:25;4.10;99.90
752;DHT22;360;48.764;9.164;2023-01-04T02:34:59;4.00;99.90
752;DHT22;360;48.764;9.164;2023-01-04T02:37:37;4.00;99.90
752;DHT22;360;48.764;9.164;2023-01-04T02:40:12;3.90;99.90
752;DHT22;360;48.764;9.164;2023-01-04T02:42:44;3.70;99.90
752;DHT22;360;48.764;9.164;2023-01-04T02:45:37;3.70;99.90
752;DHT22;360;48.764;9.164;2023-01-04T02:48:07;3.80;99.90
752;DHT22;360;48.764;9.164;2023-01-04T02:50:54;4.00;99.90
752;DHT22;360;48.764;9.164;2023-01-04T02:53:24;4.10;99.90
752;DHT22;360;48.764;9.164;2023-01-04T02:56:00;4.20;99.90
752;DHT22;360;48.764;9.164;2023-01-04T02:58:58;4.20;99.90
752;DHT22;360;48.764;9.164;2023-01-04T03:01:39;4.20;99.90
752;DHT22;360;48.764;9.164;2023-01-04T03:04:43;4.30;99.90
752;DHT22;360;48.764;9.164;2023-01-04T03:07:36;4.40;99.90
752;DHT22;360;48.764;9.164;2023-01-04T03:10:07;4.30;99.90
752;DHT22;360;48.764;9.164;2023-01-04T03:12:42;4.40;99.90
752;DHT22;360;48.764;9.164;2023-01-04T03:15:12;4.50;99.90
752;DHT22;360;48.764;9.164;2023-01-04T03:17:43;4.40;99.00
752;DHT22;360;48.764;9.164;2023-01-04T03:20:16;4.40;99.90
752;DHT22;360;48.764;9.164;2023-01-04T03:22:46;4.40;99.90
752;DHT22;360;48.764;9.164;2023-01-04T03:25:38;4.40;99.90
752;DHT22;360;48.764;9.164;2023-01-04T03:28:24;4.50;96.70
752;DHT22;360;48.764;9.164;2023-01-04T03:31:13;4.40;67.70
752;DHT22;360;48.764;9.164;2023-01-04T03:34:00;4.40;95.10
752;DHT22;360;48.764;9.164;2023-01-04T03:36:53;4.40;91.00
752;DHT22;360;48.764;9.164;2023-01-04T03:39:30;4.50;92.80
752;DHT22;360;48.764;9.164;2023-01-04T03:42:19;4.50;85.30
752;DHT22;360;48.764;9.164;2023-01-04T03:45:14;4.40;85.70
752;DHT22;360;48.764;9.164;2023-01-04T03:48:05;4.50;93.00
752;DHT22;360;48.764;9.164;2023-01-04T03:50:54;4.50;59.30
752;DHT22;360;48.764;9.164;2023-01-04T03:53:24;4.60;47.20
752;DHT22;360;48.764;9.164;2023-01-04T03:55:53;4.60;44.30
752;DHT22;360;48.764;9.164;2023-01-04T03:58:21;4.70;45.00
752;DHT22;360;48.764;9.164;2023-01-04T04:00:48;4.90;10.00
752;DHT22;360;48.764;9.164;2023-01-04T04:03:15;5.00;1.00
752;DHT22;360;48.764;9.164;2023-01-04T04:05:43;5.10;1.00
752;DHT22;360;48.764;9.164;2023-01-04T04:08:29;5.20;1.00
752;DHT22;360;48.764;9.164;2023-01-04T04:10:57;5.30;1.00
752;DHT22;360;48.764;9.164;2023-01-04T04:13:45;5.40;1.00
752;DHT22;360;48.764;9.164;2023-01-04T04:16:12;5.30;1.00
752;DHT22;360;48.764;9.164;2023-01-04T04:18:39;5.30;1.00
752;DHT22;360;48.764;9.164;2023-01-04T04:21:06;5.30;1.00
752;DHT22;360;48.764;9.164;2023-01-04T04:23:34;5.30;1.00
752;DHT22;360;48.764;9.164;2023-01-04T04:26:01;5.40;1.00
752;DHT22;360;48.764;9.164;2023-01-04T04:28:28;5.50;1.00
752;DHT22;360;48.764;9.164;2023-01-04T04:30:55;5.50;1.00
752;DHT22;360;48.764;9.164;2023-01-04T04:33:21;5.60;1.00
752;DHT22;360;48.764;9.164;2023-01-04T04:35:49;5.50;1.00
752;DHT22;360;48.764;9.164;2023-01-04T04:38:17;5.50;1.00
752;DHT22;360;48.764;9.164;2023-01-04T04:40:45;5.50;1.00
752;DHT22;360;48.764;9.164;2023-01-04T04:43:32;5.60;1.00
752;DHT22;360;48.764;9.164;2023-01-04T04:46:01;5.60;1.00
752;DHT22;360;48.764;9.164;2023-01-04T04:48:28;5.60;1.00
752;DHT22;360;48.764;9.164;2023-01-04T04:50:54;5.60;1.00
752;DHT22;360;48.764;9.164;2023-01-04T04:53:21;5.60;1.00
752;DHT22;360;48.764;9.164;2023-01-04T04:55:51;5.60;1.00
752;DHT22;360;48.764;9.164;2023-01-04T04:58:18;5.60;1.00
752;DHT22;360;48.764;9.164;2023-01-04T05:00:45;5.80;1.00
752;DHT22;360;48.764;9.164;2023-01-04T05:03:12;5.90;1.00
752;DHT22;360;48.764;9.164;2023-01-04T05:05:38;5.90;1.00
752;DHT22;360;48.764;9.164;2023-01-04T05:08:05;6.00;1.00
752;DHT22;360;48.764;9.164;2023-01-04T05:10:32;6.00;1.00
752;DHT22;360;48.764;9.164;2023-01-04T05:13:00;6.00;1.00
752;DHT22;360;48.764;9.164;2023-01-04T05:15:28;6.00;1.00
752;DHT22;360;48.764;9.164;2023-01-04T05:17:56;6.10;1.00
752;DHT22;360;48.764;9.164;2023-01-04T05:20:23;6.10;1.00
752;DHT22;360;48.764;9.164;2023-01-04T05:22:50;6.10;1.00
752;DHT22;360;48.764;9.164;2023-01-04T05:25:17;6.10;1.00
752;DHT22;360;48.764;9.164;2023-01-04T05:27:44;6.10;1.00
752;DHT22;360;48.764;9.164;2023-01-04T05:30:13;6.10;1.00
752;DHT22;360;48.764;9.164;2023-01-04T05:32:58;6.20;1.00
752;DHT22;360;48.764;9.164;2023-01-04T05:35:25;6.30;1.00
752;DHT22;360;48.764;9.164;2023-01-04T05:37:52;6.30;1.00
752;DHT22;360;48.764;9.164;2023-01-04T05:40:20;6.30;99.90
752;DHT22;360;48.764;9.164;2023-01-04T05:42:47;6.30;99.90
752;DHT22;360;48.764;9.164;2023-01-04T05:45:16;6.30;1.00
752;DHT22;360;48.764;9.164;2023-01-04T05:47:44;6.50;99.90
752;DHT22;360;48.764;9.164;2023-01-04T05:50:10;6.50;99.90
752;DHT22;360;48.764;9.164;2023-01-04T05:52:37;6.50;99.90
752;DHT22;360;48.764;9.164;2023-01-04T05:55:04;6.50;99.90
752;DHT22;360;48.764;9.164;2023-01-04T05:57:31;6.60;99.90
752;DHT22;360;48.764;9.164;2023-01-04T05:59:58;6.60;99.90
752;DHT22;360;48.764;9.164;2023-01-04T06:02:28;6.60;99.90
752;DHT22;360;48.764;9.164;2023-01-04T06:04:55;6.80;99.90
752;DHT22;360;48.764;9.164;2023-01-04T06:07:22;6.80;99.90
752;DHT22;360;48.764;9.164;2023-01-04T06:09:49;6.90;99.90
752;DHT22;360;48.764;9.164;2023-01-04T06:12:16;6.90;99.90
752;DHT22;360;48.764;9.164;2023-01-04T06:14:43;6.90;99.90
752;DHT22;360;48.764;9.164;2023-01-04T06:17:09;7.00;99.90
752;DHT22;360;48.764;9.164;2023-01-04T06:19:38;7.00;99.90
752;DHT22;360;48.764;9.164;2023-01-04T06:22:05;7.00;99.90
752;DHT22;360;48.764;9.164;2023-01-04T06:24:32;7.10;99.90
752;DHT22;360;48.764;9.164;2023-01-04T06:26:59;7.10;99.90
752;DHT22;360;48.764;9.164;2023-01-04T06:29:26;7.00;99.90
752;DHT22;360;48.764;9.164;2023-01-04T06:31:53;7.10;99.90
752;DHT22;360;48.764;9.164;2023-01-04T06:34:20;7.10;99.90
752;DHT22;360;48.764;9.164;2023-01-04T06:36:48;7.10;96.10
752;DHT22;360;48.764;9.164;2023-01-04T06:39:15;7.20;65.50
752;DHT22;360;48.764;9.164;2023-01-04T06:41:42;7.20;31.40
752;DHT22;360;48.764;9.164;2023-01-04T06:44:08;7.20;1.00
752;DHT22;360;48.764;9.164;2023-01-04T06:46:35;7.20;1.00
752;DHT22;360;48.764;9.164;2023-01-04T06:49:02;7.30;1.00
752;DHT22;360;48.764;9.164;2023-01-04T06:51:29;7.20;1.00
752;DHT22;360;48.764;9.164;2023-01-04T06:53:57;7.20;1.00
752;DHT22;360;48.764;9.164;2023-01-04T06:56:24;7.20;1.00
752;DHT22;360;48.764;9.164;2023-01-04T06:58:51;7.20;1.00
752;DHT22;360;48.764;9.164;2023-01-04T07:01:18;7.20;1.00
752;DHT22;360;48.764;9.164;2023-01-04T07:03:44;7.30;1.00
752;DHT22;360;48.764;9.164;2023-01-04T07:06:11;7.30;1.00
752;DHT22;360;48.764;9.164;2023-01-04T07:08:38;7.30;1.00
752;DHT22;360;48.764;9.164;2023-01-04T07:11:06;7.30;1.00
752;DHT22;360;48.764;9.164;2023-01-04T07:13:33;7.30;1.00
752;DHT22;360;48.764;9.164;2023-01-04T07:16:00;7.40;1.00
752;DHT22;360;48.764;9.164;2023-01-04T07:18:26;7.40;1.00
752;DHT22;360;48.764;9.164;2023-01-04T07:20:53;7.40;1.00
752;DHT22;360;48.764;9.164;2023-01-04T07:23:20;7.40;1.00
752;DHT22;360;48.764;9.164;2023-01-04T07:25:47;7.50;99.90
752;DHT22;360;48.764;9.164;2023-01-04T07:28:15;7.50;99.90
752;DHT22;360;48.764;9.164;2023-01-04T07:31:06;7.50;99.90
752;DHT22;360;48.764;9.164;2023-01-04T07:33:33;7.60;99.90
752;DHT22;360;48.764;9.164;2023-01-04T07:36:04;7.50;99.90
752;DHT22;360;48.764;9.164;2023-01-04T07:38:32;7.50;99.90
752;DHT22;360;48.764;9.164;2023-01-04T07:40:59;7.60;1.00
752;DHT22;360;48.764;9.164;2023-01-04T07:43:28;7.50;1.00
752;DHT22;360;48.764;9.164;2023-01-04T07:45:55;7.40;1.00
752;DHT22;360;48.764;9.164;2023-01-04T07:48:22;7.40;99.90
752;DHT22;360;48.764;9.164;2023-01-04T07:50:48;7.30;99.90
752;DHT22;360;48.764;9.164;2023-01-04T07:53:15;7.30;99.90
752;DHT22;360;48.764;9.164;2023-01-04T07:55:43;7.20;99.90
752;DHT22;360;48.764;9.164;2023-01-04T07:58:10;7.20;1.00
752;DHT22;360;48.764;9.164;2023-01-04T08:00:38;7.20;1.00
752;DHT22;360;48.764;9.164;2023-01-04T08:03:05;7.20;1.00
752;DHT22;360;48.764;9.164;2023-01-04T08:05:32;7.20;1.00
752;DHT22;360;48.764;9.164;2023-01-04T08:07:59;7.20;1.00
752;DHT22;360;48.764;9.164;2023-01-04T08:10:26;7.10;1.00
752;DHT22;360;48.764;9.164;2023-01-04T08:12:53;7.10;1.00
752;DHT22;360;48.764;9.164;2023-01-04T08:15:20;7.10;1.00
752;DHT22;360;48.764;9.164;2023-01-04T08:17:48;7.20;1.00
752;DHT22;360;48.764;9.164;2023-01-04T08:20:15;7.20;1.00
752;DHT22;360;48.764;9.164;2023-01-04T08:22:42;7.20;1.00
752;DHT22;360;48.764;9.164;2023-01-04T08:25:09;7.20;1.00
752;DHT22;360;48.764;9.164;2023-01-04T08:27:36;7.20;1.00
752;DHT22;360;48.764;9.164;2023-01-04T08:30:03;7.20;1.00
752;DHT22;360;48.764;9.164;2023-01-04T08:32:30;7.20;1.00
752;DHT22;360;48.764;9.164;2023-01-04T08:34:59;7.20;1.00
752;DHT22;360;48.764;9.164;2023-01-04T08:37:25;7.30;1.00
752;DHT22;360;48.764;9.164;2023-01-04T08:39:52;7.20;1.00
752;DHT22;360;48.764;9.164;2023-01-04T08:42:19;7.30;1.00
752;DHT22;360;48.764;9.164;2023-01-04T08:44:46;7.30;1.00
752;DHT22;360;48.764;9.164;2023-01-04T08:47:13;7.40;1.00
752;DHT22;360;48.764;9.164;2023-01-04T08:49:40;7.30;1.00
752;DHT22;360;48.764;9.164;2023-01-04T08:52:08;7.40;1.00
752;DHT22;360;48.764;9.164;2023-01-04T08:54:36;7.40;99.90
752;DHT22;360;48.764;9.164;2023-01-04T08:57:03;7.40;99.90
752;DHT22;360;48.764;9.164;2023-01-04T08:59:29;7.50;99.90
752;DHT22;360;48.764;9.164;2023-01-04T09:01:56;7.50;99.90
752;DHT22;360;48.764;9.164;2023-01-04T09:04:23;7.50;99.90
752;DHT22;360;48.764;9.164;2023-01-04T09:06:50;7.60;99.90
752;DHT22;360;48.764;9.164;2023-01-04T09:09:18;7.60;1.00
752;DHT22;360;48.764;9.164;2023-01-04T09:11:45;7.60;1.00
752;DHT22;360;48.764;9.164;2023-01-04T09:14:11;7.60;1.00
752;DHT22;360;48.764;9.164;2023-01-04T09:16:39;7.70;1.00
752;DHT22;360;48.764;9.164;2023-01-04T09:19:06;7.80;99.90
752;DHT22;360;48.764;9.164;2023-01-04T09:21:33;7.80;1.00
752;DHT22;360;48.764;9.164;2023-01-04T09:24:01;7.80;99.90
752;DHT22;360;48.764;9.164;2023-01-04T09:26:29;7.80;99.90
752;DHT22;360;48.764;9.164;2023-01-04T09:28:56;7.90;99.90
752;DHT22;360;48.764;9.164;2023-01-04T09:31:24;7.90;18.80
752;DHT22;360;48.764;9.164;2023-01-04T09:33:51;8.00;99.90
752;DHT22;360;48.764;9.164;2023-01-04T09:36:19;8.10;1.00
752;DHT22;360;48.764;9.164;2023-01-04T09:38:46;8.10;1.00
752;DHT22;360;48.764;9.164;2023-01-04T09:41:21;8.10;1.00
752;DHT22;360;48.764;9.164;2023-01-04T09:43:53;8.20;1.00
752;DHT22;360;48.764;9.164;2023-01-04T09:46:31;8.20;1.00
752;DHT22;360;48.764;9.164;2023-01-04T09:49:11;8.30;1.00
752;DHT22;360;48.764;9.164;2023-01-04T09:51:42;8.30;99.90
752;DHT22;360;48.764;9.164;2023-01-04T09:54:14;8.50;1.00
752;DHT22;360;48.764;9.164;2023-01-04T09:56:46;8.50;1.00
752;DHT22;360;48.764;9.164;2023-01-04T09:59:16;8.60;99.90
752;DHT22;360;48.764;9.164;2023-01-04T10:01:49;8.60;1.00
752;DHT22;360;48.764;9.164;2023-01-04T10:04:23;8.60;1.00
752;DHT22;360;48.764;9.164;2023-01-04T10:06:52;8.60;99.90
752;DHT22;360;48.764;9.164;2023-01-04T10:09:19;8.60;1.00
752;DHT22;360;48.764;9.164;2023-01-04T10:12:03;8.60;1.00
752;DHT22;360;48.764;9.164;2023-01-04T10:14:45;8.60;1.00
752;DHT22;360;48.764;9.164;2023-01-04T10:17:29;8.60;93.40
752;DHT22;360;48.764;9.164;2023-01-04T10:20:09;8.70;1.00
752;DHT22;360;48.764;9.164;2023-01-04T10:22:43;8.70;1.00
752;DHT22;360;48.764;9.164;2023-01-04T10:25:22;8.70;1.00
752;DHT22;360;48.764;9.164;2023-01-04T10:28:00;8.70;1.00
752;DHT22;360;48.764;9.164;2023-01-04T10:30:34;8.70;1.00
752;DHT22;360;48.764;9.164;2023-01-04T10:33:11;8.70;1.00
752;DHT22;360;48.764;9.164;2023-01-04T10:35:38;8.80;1.00
752;DHT22;360;48.764;9.164;2023-01-04T10:38:14;8.90;1.00
752;DHT22;360;48.764;9.164;2023-01-04T10:40:45;8.90;1.00
752;DHT22;360;48.764;9.164;2023-01-04T10:43:20;8.90;1.00
752;DHT22;360;48.764;9.164;2023-01-04T10:45:53;9.00;1.00
752;DHT22;360;48.764;9.164;2023-01-04T10:48:28;9.10;1.00
752;DHT22;360;48.764;9.164;2023-01-04T10:50:59;9.10;1.00
752;DHT22;360;48.764;9.164;2023-01-04T10:53:31;9.10;99.90
752;DHT22;360;48.764;9.164;2023-01-04T10:56:02;9.20;99.90
752;DHT22;360;48.764;9.164;2023-01-04T10:58:35;9.20;1.00
752;DHT22;360;48.764;9.164;2023-01-04T11:01:07;9.20;99.90
752;DHT22;360;48.764;9.164;2023-01-04T11:03:41;9.30;99.90
752;DHT22;360;48.764;9.164;2023-01-04T11:06:15;9.30;99.90
752;DHT22;360;48.764;9.164;2023-01-04T11:08:46;9.30;99.90
752;DHT22;360;48.764;9.164;2023-01-04T11:11:16;9.40;99.90
752;DHT22;360;48.764;9.164;2023-01-04T11:13:45;9.40;99.90
752;DHT22;360;48.764;9.164;2023-01-04T11:16:14;9.40;99.90
752;DHT22;360;48.764;9.164;2023-01-04T11:18:42;9.40;99.90
752;DHT22;360;48.764;9.164;2023-01-04T11:21:12;9.40;99.90
752;DHT22;360;48.764;9.164;2023-01-04T11:23:39;9.50;99.90
752;DHT22;360;48.764;9.164;2023-01-04T11:26:10;9.50;99.90
752;DHT22;360;48.764;9.164;2023-01-04T11:28:41;9.50;99.90
752;DHT22;360;48.764;9.164;2023-01-04T11:31:18;9.50;99.90
752;DHT22;360;48.764;9.164;2023-01-04T11:33:52;9.60;99.90
752;DHT22;360;48.764;9.164;2023-01-04T11:36:33;9.60;99.90
752;DHT22;360;48.764;9.164;2023-01-04T11:39:01;9.60;99.90
752;DHT22;360;48.764;9.164;2023-01-04T11:41:28;9.60;99.90
752;DHT22;360;48.764;9.164;2023-01-04T11:43:57;9.70;99.90
752;DHT22;360;48.764;9.164;2023-01-04T11:46:26;9.70;99.90
752;DHT22;360;48.764;9.164;2023-01-04T11:48:53;9.70;99.90
752;DHT22;360;48.764;9.164;2023-01-04T11:51:34;9.70;99.90
752;DHT22;360;48.764;9.164;2023-01-04T11:54:05;9.80;99.90
752;DHT22;360;48.764;9.164;2023-01-04T11:56:33;9.80;99.90
752;DHT22;360;48.764;9.164;2023-01-04T11:59:10;9.80;99.90
752;DHT22;360;48.764;9.164;2023-01-04T12:01:40;9.80;99.90
752;DHT22;360;48.764;9.164;2023-01-04T12:04:13;9.90;99.90
752;DHT22;360;48.764;9.164;2023-01-04T12:06:45;9.90;99.90
752;DHT22;360;48.764;9.164;2023-01-04T12:09:14;9.90;99.90
752;DHT22;360;48.764;9.164;2023-01-04T12:11:44;9.90;99.90
752;DHT22;360;48.764;9.164;2023-01-04T12:14:21;9.90;99.90
752;DHT22;360;48.764;9.164;2023-01-04T12:16:55;10.00;99.90
752;DHT22;360;48.764;9.164;2023-01-04T12:19:22;10.00;99.90
752;DHT22;360;48.764;9.164;2023-01-04T12:21:51;10.00;99.90
752;DHT22;360;48.764;9.164;2023-01-04T12:24:21;10.00;99.90
752;DHT22;360;48.764;9.164;2023-01-04T12:26:48;10.10;99.90
752;DHT22;360;48.764;9.164;2023-01-04T12:29:51;10.10;99.90
752;DHT22;360;48.764;9.164;2023-01-04T12:32:43;10.10;99.90
752;DHT22;360;48.764;9.164;2023-01-04T12:38:59;10.10;99.90
752;DHT22;360;48.764;9.164;2023-01-04T12:47:49;10.30;99.90
752;DHT22;360;48.764;9.164;2023-01-04T12:53:54;10.40;99.90
752;DHT22;360;48.764;9.164;2023-01-04T12:56:21;10.40;99.90
752;DHT22;360;48.764;9.164;2023-01-04T12:59:09;10.50;99.90
752;DHT22;360;48.764;9.164;2023-01-04T13:01:37;10.50;99.90
752;DHT22;360;48.764;9.164;2023-01-04T13:04:27;10.50;99.90
752;DHT22;360;48.764;9.164;2023-01-04T13:06:54;10.50;99.90
752;DHT22;360;48.764;9.164;2023-01-04T13:09:32;10.50;99.90
752;DHT22;360;48.764;9.164;2023-01-04T13:12:07;10.50;99.90
752;DHT22;360;48.764;9.164;2023-01-04T13:14:41;10.60;99.90
752;DHT22;360;48.764;9.164;2023-01-04T13:17:18;10.60;99.90
752;DHT22;360;48.764;9.164;2023-01-04T13:19:47;10.60;99.90
752;DHT22;360;48.764;9.164;2023-01-04T13:22:20;10.60;1.00
752;DHT22;360;48.764;9.164;2023-01-04T13:24:48;10.60;99.90
752;DHT22;360;48.764;9.164;2023-01-04T13:27:18;10.60;99.90
752;DHT22;360;48.764;9.164;2023-01-04T13:29:45;10.70;99.90
752;DHT22;360;48.764;9.164;2023-01-04T13:32:17;10.70;99.90
752;DHT22;360;48.764;9.164;2023-01-04T13:34:50;10.70;1.00
752;DHT22;360;48.764;9.164;2023-01-04T13:37:28;10.70;1.00
752;DHT22;360;48.764;9.164;2023-01-04T13:40:18;10.70;1.00
752;DHT22;360;48.764;9.164;2023-01-04T13:42:47;10.70;1.00
752;DHT22;360;48.764;9.164;2023-01-04T13:48:23;10.80;1.00
752;DHT22;360;48.764;9.164;2023-01-04T13:51:02;10.80;99.90
752;DHT22;360;48.764;9.164;2023-01-04T13:53:31;10.80;1.00
752;DHT22;360;48.764;9.164;2023-01-04T13:55:59;10.90;99.90
752;DHT22;360;48.764;9.164;2023-01-04T13:58:27;10.90;99.90
752;DHT22;360;48.764;9.164;2023-01-04T14:00:57;10.90;99.90
752;DHT22;360;48.764;9.164;2023-01-04T14:03:30;11.00;99.90
752;DHT22;360;48.764;9.164;2023-01-04T14:06:11;11.00;99.90
752;DHT22;360;48.764;9.164;2023-01-04T14:11:15;11.00;99.90
752;DHT22;360;48.764;9.164;2023-01-04T14:14:23;11.10;99.90
752;DHT22;360;48.764;9.164;2023-01-04T14:17:07;11.00;99.90
752;DHT22;360;48.764;9.164;2023-01-04T14:19:44;11.00;99.90
752;DHT22;360;48.764;9.164;2023-01-04T14:22:24;11.10;99.90
752;DHT22;360;48.764;9.164;2023-01-04T14:24:53;11.10;99.90
752;DHT22;360;48.764;9.164;2023-01-04T14:27:30;11.00;99.90
752;DHT22;360;48.764;9.164;2023-01-04T14:29:57;11.00;99.90
752;DHT22;360;48.764;9.164;2023-01-04T14:32:24;11.00;99.90
752;DHT22;360;48.764;9.164;2023-01-04T14:34:52;11.00;99.90
752;DHT22;360;48.764;9.164;2023-01-04T14:37:20;10.90;99.90
752;DHT22;360;48.764;9.164;2023-01-04T14:39:47;10.90;99.90
752;DHT22;360;48.764;9.164;2023-01-04T14:42:24;11.00;1.00
752;DHT22;360;48.764;9.164;2023-01-04T14:44:52;10.90;1.00
752;DHT22;360;48.764;9.164;2023-01-04T14:47:20;10.90;99.90
752;DHT22;360;48.764;9.164;2023-01-04T14:49:47;10.90;99.90
752;DHT22;360;48.764;9.164;2023-01-04T14:52:21;10.90;99.90
752;DHT22;360;48.764;9.164;2023-01-04T14:54:48;10.90;99.90
752;DHT22;360;48.764;9.164;2023-01-04T14:57:16;10.90;1.00
752;DHT22;360;48.764;9.164;2023-01-04T14:59:42;10.90;1.00
752;DHT22;360;48.764;9.164;2023-01-04T15:02:10;10.90;1.00
752;DHT22;360;48.764;9.164;2023-01-04T15:04:37;10.90;1.00
752;DHT22;360;48.764;9.164;2023-01-04T15:07:04;10.90;1.00
752;DHT22;360;48.764;9.164;2023-01-04T15:09:32;10.90;1.00
752;DHT22;360;48.764;9.164;2023-01-04T15:12:00;10.90;1.00
752;DHT22;360;48.764;9.164;2023-01-04T15:14:27;10.80;1.00
752;DHT22;360;48.764;9.164;2023-01-04T15:16:54;10.80;1.00
752;DHT22;360;48.764;9.164;2023-01-04T15:19:21;10.80;1.00
752;DHT22;360;48.764;9.164;2023-01-04T15:21:48;10.80;1.00
752;DHT22;360;48.764;9.164;2023-01-04T15:24:14;10.80;48.30
752;DHT22;360;48.764;9.164;2023-01-04T15:26:43;10.70;87.40
752;DHT22;360;48.764;9.164;2023-01-04T15:29:09;10.80;39.90
752;DHT22;360;48.764;9.164;2023-01-04T15:31:36;10.80;79.40
752;DHT22;360;48.764;9.164;2023-01-04T15:34:06;10.70;99.90
752;DHT22;360;48.764;9.164;2023-01-04T15:36:32;10.60;99.90
752;DHT22;360;48.764;9.164;2023-01-04T15:39:03;10.60;1.00
752;DHT22;360;48.764;9.164;2023-01-04T15:41:30;10.60;99.90
752;DHT22;360;48.764;9.164;2023-01-04T15:44:15;10.70;99.90
752;DHT22;360;48.764;9.164;2023-01-04T15:46:42;10.70;99.90
752;DHT22;360;48.764;9.164;2023-01-04T15:49:09;10.60;1.00
752;DHT22;360;48.764;9.164;2023-01-04T15:51:36;10.70;1.00
752;DHT22;360;48.764;9.164;2023-01-04T15:54:03;10.70;1.00
752;DHT22;360;48.764;9.164;2023-01-04T15:56:30;10.70;99.90
752;DHT22;360;48.764;9.164;2023-01-04T15:58:56;10.70;1.00
752;DHT22;360;48.764;9.164;2023-01-04T16:01:24;10.70;1.00
752;DHT22;360;48.764;9.164;2023-01-04T16:03:51;10.60;1.00
752;DHT22;360;48.764;9.164;2023-01-04T16:06:18;10.70;1.00
752;DHT22;360;48.764;9.164;2023-01-04T16:08:45;10.70;1.00
752;DHT22;360;48.764;9.164;2023-01-04T16:11:15;10.70;1.00
752;DHT22;360;48.764;9.164;2023-01-04T16:21:10;10.70;1.00
752;DHT22;360;48.764;9.164;2023-01-04T16:23:37;10.80;99.90
752;DHT22;360;48.764;9.164;2023-01-04T16:26:05;10.80;99.90
752;DHT22;360;48.764;9.164;2023-01-04T16:28:33;10.80;1.00
752;DHT22;360;48.764;9.164;2023-01-04T16:31:00;10.80;1.00
752;DHT22;360;48.764;9.164;2023-01-04T16:33:27;10.90;99.90
752;DHT22;360;48.764;9.164;2023-01-04T16:36:04;10.90;99.90
752;DHT22;360;48.764;9.164;2023-01-04T16:38:33;10.90;99.90
752;DHT22;360;48.764;9.164;2023-01-04T16:41:02;11.00;99.90
752;DHT22;360;48.764;9.164;2023-01-04T16:43:29;11.00;99.90
752;DHT22;360;48.764;9.164;2023-01-04T16:46:17;10.90;99.90
752;DHT22;360;48.764;9.164;2023-01-04T16:48:46;10.90;99.90
752;DHT22;360;48.764;9.164;2023-01-04T16:51:15;11.00;99.90
752;DHT22;360;48.764;9.164;2023-01-04T16:53:42;11.00;99.90
752;DHT22;360;48.764;9.164;2023-01-04T16:56:11;11.00;99.90
752;DHT22;360;48.764;9.164;2023-01-04T16:58:38;11.10;43.00
752;DHT22;360;48.764;9.164;2023-01-04T17:01:09;11.00;99.90
752;DHT22;360;48.764;9.164;2023-01-04T17:03:36;11.00;99.90
752;DHT22;360;48.764;9.164;2023-01-04T17:06:07;11.00;99.90
752;DHT22;360;48.764;9.164;2023-01-04T17:08:36;11.10;47.20
752;DHT22;360;48.764;9.164;2023-01-04T17:11:06;11.10;35.60
752;DHT22;360;48.764;9.164;2023-01-04T17:13:33;11.10;7.00
752;DHT22;360;48.764;9.164;2023-01-04T17:16:01;11.10;99.70
752;DHT22;360;48.764;9.164;2023-01-04T17:18:28;11.10;84.70
752;DHT22;360;48.764;9.164;2023-01-04T17:20:57;11.10;1.00
752;DHT22;360;48.764;9.164;2023-01-04T17:23:24;11.10;1.00
752;DHT22;360;48.764;9.164;2023-01-04T17:25:54;11.10;1.00
752;DHT22;360;48.764;9.164;2023-01-04T17:28:21;11.10;1.00
752;DHT22;360;48.764;9.164;2023-01-04T17:30:47;11.10;1.00
752;DHT22;360;48.764;9.164;2023-01-04T17:33:14;11.10;1.00
752;DHT22;360;48.764;9.164;2023-01-04T17:35:41;11.10;1.00
752;DHT22;360;48.764;9.164;2023-01-04T17:38:08;11.20;1.00
752;DHT22;360;48.764;9.164;2023-01-04T17:40:35;11.10;17.40
752;DHT22;360;48.764;9.164;2023-01-04T17:43:03;11.10;85.90
752;DHT22;360;48.764;9.164;2023-01-04T17:45:31;11.20;72.80